createdAt,value
2019-04-03T00:00:17.736Z,942.01
2019-04-03T00:01:17.822Z,942.07
2019-04-03T00:02:17.726Z,942.06
2019-04-03T00:03:17.743Z,942.03
2019-04-03T00:04:17.714Z,942.04
2019-04-03T00:05:17.678Z,942.03
2019-04-03T00:06:17.680Z,942.05
2019-04-03T00:07:18.466Z,942.05
2019-04-03T00:08:17.702Z,942.06
2019-04-03T00:09:17.649Z,942.08
2019-04-03T00:10:17.641Z,942.03
2019-04-03T00:11:17.646Z,942.11
2019-04-03T00:12:17.598Z,942.08
2019-04-03T00:13:18.444Z,942.08
2019-04-03T00:14:17.650Z,942.06
2019-04-03T00:15:17.572Z,942.12
2019-04-03T00:16:17.600Z,942.10
2019-04-03T00:17:17.551Z,942.03
2019-04-03T00:18:17.531Z,942.04
2019-04-03T00:19:18.115Z,941.98
2019-04-03T00:20:18.418Z,941.92
2019-04-03T00:21:17.749Z,941.93
2019-04-03T00:22:17.541Z,941.94
2019-04-03T00:23:17.590Z,941.89
2019-04-03T00:24:17.464Z,941.85
2019-04-03T00:25:17.461Z,941.83
2019-04-03T00:26:17.453Z,941.85
2019-04-03T00:27:17.435Z,941.80
2019-04-03T00:28:17.463Z,941.83
2019-04-03T00:29:17.400Z,941.80
2019-04-03T00:30:17.398Z,941.80
2019-04-03T00:31:17.379Z,941.84
2019-04-03T00:32:17.391Z,941.84
2019-04-03T00:33:17.376Z,941.88
2019-04-03T00:34:17.376Z,941.75
2019-04-03T00:35:17.350Z,941.79
2019-04-03T00:36:17.328Z,941.80
2019-04-03T00:37:17.317Z,941.81
2019-04-03T00:38:17.333Z,941.86
2019-04-03T00:39:17.298Z,941.89
2019-04-03T00:40:17.305Z,941.85
2019-04-03T00:41:17.272Z,941.79
2019-04-03T00:42:17.260Z,941.79
2019-04-03T00:43:17.253Z,941.77
2019-04-03T00:44:17.243Z,941.76
2019-04-03T00:45:17.280Z,941.75
2019-04-03T00:46:17.244Z,941.80
2019-04-03T00:47:17.199Z,941.82
2019-04-03T00:48:17.199Z,941.75
2019-04-03T00:49:17.226Z,941.72
2019-04-03T00:50:17.167Z,941.70
2019-04-03T00:51:17.221Z,941.67
2019-04-03T00:52:17.166Z,941.70
2019-04-03T00:53:17.137Z,941.70
2019-04-03T00:54:17.128Z,941.70
2019-04-03T00:55:17.115Z,941.67
2019-04-03T00:56:17.098Z,941.63
2019-04-03T00:57:17.088Z,941.61
2019-04-03T00:58:17.097Z,941.62
2019-04-03T00:59:17.104Z,941.57
2019-04-03T01:00:17.052Z,941.58
2019-04-03T01:01:17.042Z,941.55
2019-04-03T01:02:17.034Z,941.58
2019-04-03T01:03:17.018Z,941.54
2019-04-03T01:04:17.020Z,941.56
2019-04-03T01:05:17.027Z,941.51
2019-04-03T01:06:16.988Z,941.50
2019-04-03T01:07:16.984Z,941.52
2019-04-03T01:08:16.969Z,941.49
2019-04-03T01:09:17.123Z,941.51
2019-04-03T01:10:17.031Z,941.47
2019-04-03T01:11:16.946Z,941.45
2019-04-03T01:12:16.964Z,941.41
2019-04-03T01:13:16.992Z,941.40
2019-04-03T01:14:16.902Z,941.35
2019-04-03T01:15:17.102Z,941.41
2019-04-03T01:16:16.880Z,941.33
2019-04-03T01:17:16.898Z,941.35
2019-04-03T01:18:16.880Z,941.35
2019-04-03T01:19:16.840Z,941.25
2019-04-03T01:20:16.832Z,941.32
2019-04-03T01:21:16.852Z,941.33
2019-04-03T01:22:16.808Z,941.31
2019-04-03T01:23:16.792Z,941.28
2019-04-03T01:24:16.811Z,941.29
2019-04-03T01:25:16.801Z,941.26
2019-04-03T01:26:16.765Z,941.17
2019-04-03T01:27:16.760Z,941.21
2019-04-03T01:28:16.751Z,941.24
2019-04-03T01:29:16.740Z,941.24
2019-04-03T01:30:16.735Z,941.20
2019-04-03T01:31:16.709Z,941.16
2019-04-03T01:32:16.815Z,941.12
2019-04-03T01:33:17.171Z,941.09
2019-04-03T01:34:17.814Z,941.04
2019-04-03T01:35:17.377Z,941.05
2019-04-03T01:36:17.584Z,941.00
2019-04-03T01:37:16.820Z,941.08
2019-04-03T01:38:19.093Z,941.04
2019-04-03T01:39:16.616Z,940.95
2019-04-03T01:40:16.616Z,940.97
2019-04-03T01:41:16.601Z,940.94
2019-04-03T01:42:16.614Z,940.93
2019-04-03T01:43:16.720Z,940.94
2019-04-03T01:44:16.569Z,940.95
2019-04-03T01:45:16.551Z,940.90
2019-04-03T01:46:16.543Z,940.88
2019-04-03T01:47:16.650Z,940.86
2019-04-03T01:48:16.535Z,940.84
2019-04-03T01:49:16.506Z,940.84
2019-04-03T01:50:16.493Z,940.88
2019-04-03T01:51:16.485Z,940.83
2019-04-03T01:52:16.492Z,940.83
2019-04-03T01:53:16.598Z,940.85
2019-04-03T01:54:16.497Z,940.79
2019-04-03T01:55:16.489Z,940.79
2019-04-03T01:56:16.432Z,940.77
2019-04-03T01:57:16.433Z,940.75
2019-04-03T01:58:16.404Z,940.74
2019-04-03T01:59:16.394Z,940.71
2019-04-03T02:00:16.410Z,940.70
2019-04-03T02:01:16.538Z,940.72
2019-04-03T02:02:16.390Z,940.71
2019-04-03T02:03:16.347Z,940.73
2019-04-03T02:04:16.335Z,940.68
2019-04-03T02:05:16.338Z,940.67
2019-04-03T02:06:16.335Z,940.65
2019-04-03T02:07:16.298Z,940.65
2019-04-03T02:08:16.330Z,940.66
2019-04-03T02:09:16.387Z,940.60
2019-04-03T02:10:17.789Z,940.63
2019-04-03T02:11:16.787Z,940.61
2019-04-03T02:12:16.287Z,940.60
2019-04-03T02:13:16.260Z,940.57
2019-04-03T02:14:16.237Z,940.56
2019-04-03T02:15:16.215Z,940.57
2019-04-03T02:16:16.211Z,940.57
2019-04-03T02:17:16.210Z,940.55
2019-04-03T02:18:16.238Z,940.55
2019-04-03T02:19:16.239Z,940.48
2019-04-03T02:20:16.149Z,940.52
2019-04-03T02:21:16.150Z,940.46
2019-04-03T02:22:16.134Z,940.47
2019-04-03T02:23:16.134Z,940.41
2019-04-03T02:24:16.107Z,940.41
2019-04-03T02:25:16.261Z,940.42
2019-04-03T02:26:16.104Z,940.39
2019-04-03T02:27:16.089Z,940.41
2019-04-03T02:28:16.078Z,940.38
2019-04-03T02:29:16.051Z,940.38
2019-04-03T02:30:16.134Z,940.36
2019-04-03T02:31:19.108Z,940.34
2019-04-03T02:32:16.129Z,940.34
2019-04-03T02:33:16.188Z,940.32
2019-04-03T02:34:16.020Z,940.30
2019-04-03T02:35:16.007Z,940.26
2019-04-03T02:36:15.980Z,940.29
2019-04-03T02:37:16.914Z,940.29
2019-04-03T02:38:15.965Z,940.29
2019-04-03T02:39:16.127Z,940.27
2019-04-03T02:40:15.972Z,940.31
2019-04-03T02:41:15.929Z,940.25
2019-04-03T02:42:15.910Z,940.24
2019-04-03T02:43:15.908Z,940.22
2019-04-03T02:44:17.985Z,940.19
2019-04-03T02:45:15.871Z,940.13
2019-04-03T02:46:15.902Z,940.12
2019-04-03T02:47:16.453Z,940.11
2019-04-03T02:48:16.065Z,940.08
2019-04-03T02:49:15.840Z,940.11
2019-04-03T02:50:15.840Z,940.12
2019-04-03T02:51:17.016Z,940.09
2019-04-03T02:52:15.815Z,940.05
2019-04-03T02:53:15.825Z,940.08
2019-04-03T02:54:15.777Z,940.07
2019-04-03T02:55:15.821Z,940.01
2019-04-03T02:56:15.815Z,939.97
2019-04-03T02:57:17.751Z,940.00
2019-04-03T02:58:16.270Z,939.97
2019-04-03T02:59:15.759Z,939.98
2019-04-03T03:00:15.832Z,939.97
2019-04-03T03:01:15.703Z,939.96
2019-04-03T03:02:15.695Z,939.98
2019-04-03T03:03:17.281Z,939.94
2019-04-03T03:04:15.699Z,939.96
2019-04-03T03:05:15.650Z,939.97
2019-04-03T03:06:15.651Z,939.96
2019-04-03T03:07:15.650Z,939.91
2019-04-03T03:08:15.728Z,939.96
2019-04-03T03:09:15.613Z,939.95
2019-04-03T03:10:18.610Z,939.85
2019-04-03T03:11:15.696Z,939.86
2019-04-03T03:12:15.711Z,939.82
2019-04-03T03:13:15.765Z,939.79
2019-04-03T03:14:25.204Z,939.75
2019-04-03T03:15:15.660Z,939.79
2019-04-03T03:16:18.102Z,939.74
2019-04-03T03:17:15.580Z,939.71
2019-04-03T03:18:15.732Z,939.70
2019-04-03T03:19:15.531Z,939.66
2019-04-03T03:20:15.505Z,939.66
2019-04-03T03:21:15.475Z,939.64
2019-04-03T03:22:18.096Z,939.63
2019-04-03T03:23:15.516Z,939.64
2019-04-03T03:24:15.564Z,939.73
2019-04-03T03:25:15.466Z,939.67
2019-04-03T03:26:15.419Z,939.71
2019-04-03T03:27:15.557Z,939.68
2019-04-03T03:28:15.403Z,939.73
2019-04-03T03:29:19.228Z,939.70
2019-04-03T03:30:34.306Z,939.68
2019-04-03T03:31:16.421Z,939.61
2019-04-03T03:32:21.338Z,939.62
2019-04-03T03:33:33.656Z,939.65
2019-04-03T03:34:16.845Z,939.62
2019-04-03T03:35:22.964Z,939.66
2019-04-03T03:36:22.718Z,939.65
2019-04-03T03:37:16.617Z,939.60
2019-04-03T03:38:15.287Z,939.62
2019-04-03T03:39:15.275Z,939.61
2019-04-03T03:40:16.142Z,939.65
2019-04-03T03:41:15.337Z,939.60
2019-04-03T03:42:15.260Z,939.56
2019-04-03T03:43:15.597Z,939.58
2019-04-03T03:44:15.222Z,939.58
2019-04-03T03:45:18.455Z,939.69
2019-04-03T03:46:16.473Z,939.71
2019-04-03T03:47:15.213Z,939.70
2019-04-03T03:48:15.212Z,939.66
2019-04-03T03:49:17.484Z,939.77
2019-04-03T03:50:15.178Z,939.64
2019-04-03T03:51:16.030Z,939.64
2019-04-03T03:52:15.315Z,939.65
2019-04-03T03:53:15.451Z,939.63
2019-04-03T03:54:18.380Z,939.66
2019-04-03T03:55:15.106Z,939.62
2019-04-03T03:56:15.221Z,939.62
2019-04-03T03:57:15.352Z,939.66
2019-04-03T03:58:15.089Z,939.69
2019-04-03T03:59:17.692Z,939.77
2019-04-03T04:00:15.050Z,939.79
2019-04-03T04:01:15.235Z,939.79
2019-04-03T04:02:15.020Z,939.81
2019-04-03T04:03:15.010Z,939.76
2019-04-03T04:04:16.062Z,939.76
2019-04-03T04:05:15.222Z,939.73
2019-04-03T04:06:15.000Z,939.81
2019-04-03T04:07:14.960Z,939.80
2019-04-03T04:08:15.200Z,939.82
2019-04-03T04:09:17.456Z,939.85
2019-04-03T04:10:15.349Z,939.84
2019-04-03T04:11:14.928Z,939.80
2019-04-03T04:12:15.261Z,939.77
2019-04-03T04:13:15.913Z,939.76
2019-04-03T04:14:15.015Z,939.79
2019-04-03T04:15:14.889Z,939.75
2019-04-03T04:16:15.043Z,939.78
2019-04-03T04:17:17.351Z,939.72
2019-04-03T04:18:15.515Z,939.74
2019-04-03T04:19:14.832Z,939.71
2019-04-03T04:20:14.824Z,939.72
2019-04-03T04:21:14.853Z,939.74
2019-04-03T04:22:16.607Z,939.75
2019-04-03T04:23:15.521Z,939.77
2019-04-03T04:24:14.775Z,939.74
2019-04-03T04:25:14.762Z,939.71
2019-04-03T04:26:15.149Z,939.69
2019-04-03T04:27:14.733Z,939.61
2019-04-03T04:28:14.797Z,939.58
2019-04-03T04:29:14.850Z,939.59
2019-04-03T04:30:14.695Z,939.59
2019-04-03T04:31:14.704Z,939.58
2019-04-03T04:32:15.342Z,939.57
2019-04-03T04:33:14.918Z,939.59
2019-04-03T04:34:14.653Z,939.59
2019-04-03T04:35:14.643Z,939.57
2019-04-03T04:36:14.653Z,939.60
2019-04-03T04:37:14.746Z,939.59
2019-04-03T04:38:14.610Z,939.61
2019-04-03T04:39:14.597Z,939.61
2019-04-03T04:40:14.596Z,939.63
2019-04-03T04:41:14.672Z,939.65
2019-04-03T04:42:14.561Z,939.61
2019-04-03T04:43:14.615Z,939.62
2019-04-03T04:44:15.205Z,939.62
2019-04-03T04:45:14.542Z,939.67
2019-04-03T04:46:26.739Z,939.64
2019-04-03T04:48:25.989Z,939.63
2019-04-03T04:49:35.567Z,939.62
2019-04-03T04:50:25.822Z,939.60
2019-04-03T04:51:26.386Z,939.63
2019-04-03T04:52:27.513Z,939.65
2019-04-03T04:53:25.859Z,939.61
2019-04-03T04:54:25.693Z,939.61
2019-04-03T04:55:25.671Z,939.60
2019-04-03T04:56:25.690Z,939.59
2019-04-03T04:57:25.656Z,939.64
2019-04-03T04:58:25.631Z,939.61
2019-04-03T04:59:25.896Z,939.67
2019-04-03T05:00:25.621Z,939.61
2019-04-03T05:01:25.611Z,939.62
2019-04-03T05:02:25.715Z,939.62
2019-04-03T05:03:25.678Z,939.66
2019-04-03T05:04:25.699Z,939.63
2019-04-03T05:05:27.218Z,939.64
2019-04-03T05:06:26.999Z,939.57
2019-04-03T05:07:25.539Z,939.56
2019-04-03T05:08:25.523Z,939.57
2019-04-03T05:09:25.533Z,939.61
2019-04-03T05:10:25.504Z,939.63
2019-04-03T05:11:25.482Z,939.63
2019-04-03T05:12:25.493Z,939.62
2019-04-03T05:13:25.483Z,939.63
2019-04-03T05:14:25.460Z,939.67
2019-04-03T05:15:25.440Z,939.62
2019-04-03T05:16:25.711Z,939.65
2019-04-03T05:17:27.248Z,939.67
2019-04-03T05:18:25.624Z,939.64
2019-04-03T05:19:25.407Z,939.65
2019-04-03T05:20:25.385Z,939.69
2019-04-03T05:21:25.390Z,939.68
2019-04-03T05:22:25.380Z,939.66
2019-04-03T05:23:26.106Z,939.66
2019-04-03T05:24:25.379Z,939.60
2019-04-03T05:25:25.357Z,939.58
2019-04-03T05:26:25.320Z,939.57
2019-04-03T05:27:25.366Z,939.61
2019-04-03T05:28:25.299Z,939.56
2019-04-03T05:29:25.327Z,939.52
2019-04-03T05:30:25.283Z,939.51
2019-04-03T05:31:25.363Z,939.50
2019-04-03T05:32:25.263Z,939.49
2019-04-03T05:33:25.238Z,939.50
2019-04-03T05:34:25.234Z,939.52
2019-04-03T05:35:25.238Z,939.50
2019-04-03T05:36:25.206Z,939.45
2019-04-03T05:37:25.193Z,939.48
2019-04-03T05:38:25.187Z,939.44
2019-04-03T05:39:25.204Z,939.46
2019-04-03T05:40:26.201Z,939.46
2019-04-03T05:41:27.658Z,939.46
2019-04-03T05:42:25.158Z,939.46
2019-04-03T05:43:25.119Z,939.46
2019-04-03T05:44:25.283Z,939.50
2019-04-03T05:45:25.117Z,939.53
2019-04-03T05:46:25.164Z,939.55
2019-04-03T05:47:25.083Z,939.55
2019-04-03T05:48:25.084Z,939.62
2019-04-03T05:49:25.074Z,939.66
2019-04-03T05:50:26.457Z,939.67
2019-04-03T05:51:25.044Z,939.68
2019-04-03T05:52:25.047Z,939.64
2019-04-03T05:53:25.014Z,939.57
2019-04-03T05:54:25.010Z,939.59
2019-04-03T05:55:24.991Z,939.49
2019-04-03T05:56:24.982Z,939.44
2019-04-03T05:57:28.344Z,939.44
2019-04-03T05:58:25.279Z,939.43
2019-04-03T05:59:24.956Z,939.45
2019-04-03T06:00:24.928Z,939.45
2019-04-03T06:01:24.941Z,939.44
2019-04-03T06:02:25.102Z,939.46
2019-04-03T06:03:38.641Z,939.50
2019-04-03T06:04:28.510Z,939.50
2019-04-03T06:05:24.895Z,939.49
2019-04-03T06:06:25.676Z,939.51
2019-04-03T06:07:33.578Z,939.48
2019-04-03T06:08:24.986Z,939.47
2019-04-03T06:09:24.989Z,939.42
2019-04-03T06:10:27.318Z,939.41
2019-04-03T06:11:25.014Z,939.44
2019-04-03T06:12:24.877Z,939.45
2019-04-03T06:13:24.800Z,939.46
2019-04-03T06:14:24.798Z,939.47
2019-04-03T06:15:25.029Z,939.46
2019-04-03T06:16:25.022Z,939.51
2019-04-03T06:17:24.753Z,939.54
2019-04-03T06:18:26.552Z,939.51
2019-04-03T06:19:24.751Z,939.54
2019-04-03T06:20:24.710Z,939.59
2019-04-03T06:21:24.729Z,939.60
2019-04-03T06:22:24.808Z,939.53
2019-04-03T06:23:24.696Z,939.60
2019-04-03T06:24:25.028Z,939.62
2019-04-03T06:25:28.921Z,939.59
2019-04-03T06:26:25.670Z,939.61
2019-04-03T06:27:27.432Z,939.59
2019-04-03T06:28:24.645Z,939.60
2019-04-03T06:29:24.620Z,939.62
2019-04-03T06:30:25.757Z,939.55
2019-04-03T06:31:26.482Z,939.56
2019-04-03T06:32:25.099Z,939.60
2019-04-03T06:33:24.596Z,939.59
2019-04-03T06:34:24.717Z,939.56
2019-04-03T06:35:24.538Z,939.52
2019-04-03T06:36:24.519Z,939.50
2019-04-03T06:37:24.518Z,939.48
2019-04-03T06:38:25.192Z,939.48
2019-04-03T06:39:27.428Z,939.49
2019-04-03T06:40:25.495Z,939.43
2019-04-03T06:41:24.722Z,939.42
2019-04-03T06:42:24.466Z,939.37
2019-04-03T06:43:24.457Z,939.29
2019-04-03T06:44:24.483Z,939.28
2019-04-03T06:45:26.151Z,939.29
2019-04-03T06:46:24.409Z,939.25
2019-04-03T06:47:24.439Z,939.31
2019-04-03T06:48:24.401Z,939.29
2019-04-03T06:49:24.526Z,939.25
2019-04-03T06:50:24.401Z,939.25
2019-04-03T06:51:24.652Z,939.27
2019-04-03T06:52:24.483Z,939.31
2019-04-03T06:53:27.758Z,939.35
2019-04-03T06:54:24.507Z,939.38
2019-04-03T06:55:25.349Z,939.39
2019-04-03T06:56:24.324Z,939.43
2019-04-03T06:57:24.317Z,939.44
2019-04-03T06:58:29.674Z,939.35
2019-04-03T06:59:24.282Z,939.35
2019-04-03T07:00:24.524Z,939.28
2019-04-03T07:01:24.306Z,939.19
2019-04-03T07:02:27.119Z,939.07
2019-04-03T07:03:45.254Z,939.01
2019-04-03T07:04:24.223Z,939.00
2019-04-03T07:05:27.058Z,938.93
2019-04-03T07:06:24.274Z,939.02
2019-04-03T07:07:33.598Z,939.04
2019-04-03T07:08:32.924Z,939.12
2019-04-03T07:09:34.007Z,939.13
2019-04-03T07:10:26.105Z,939.25
2019-04-03T07:11:24.251Z,939.18
2019-04-03T07:12:24.165Z,939.23
2019-04-03T07:13:24.106Z,939.20
2019-04-03T07:14:26.229Z,939.19
2019-04-03T07:15:25.179Z,939.18
2019-04-03T07:16:24.132Z,939.11
2019-04-03T07:17:24.098Z,939.12
2019-04-03T07:18:24.073Z,939.12
2019-04-03T07:19:24.217Z,939.20
2019-04-03T07:20:24.047Z,939.23
2019-04-03T07:21:27.136Z,939.30
2019-04-03T07:22:24.062Z,939.34
2019-04-03T07:23:24.003Z,939.35
2019-04-03T07:24:24.284Z,939.35
2019-04-03T07:25:23.977Z,939.34
2019-04-03T07:26:24.153Z,939.38
2019-04-03T07:27:23.957Z,939.36
2019-04-03T07:28:24.161Z,939.34
2019-04-03T07:29:25.554Z,939.32
2019-04-03T07:30:24.069Z,939.28
2019-04-03T07:31:24.497Z,939.23
2019-04-03T07:32:25.859Z,939.23
2019-04-03T07:33:24.090Z,939.21
2019-04-03T07:34:24.163Z,939.29
2019-04-03T07:35:23.951Z,939.26
2019-04-03T07:36:23.862Z,939.31
2019-04-03T07:37:23.836Z,939.24
2019-04-03T07:38:23.840Z,939.20
2019-04-03T07:39:23.833Z,939.19
2019-04-03T07:40:23.809Z,939.18
2019-04-03T07:41:23.804Z,939.20
2019-04-03T07:42:24.557Z,939.21
2019-04-03T07:43:26.126Z,939.18
2019-04-03T07:44:23.759Z,939.24
2019-04-03T07:45:23.752Z,939.27
2019-04-03T07:46:23.741Z,939.20
2019-04-03T07:47:23.728Z,939.20
2019-04-03T07:48:23.955Z,939.22
2019-04-03T07:49:23.726Z,939.18
2019-04-03T07:50:23.703Z,939.16
2019-04-03T07:51:23.824Z,939.17
2019-04-03T07:52:23.745Z,939.15
2019-04-03T07:53:23.661Z,939.16
2019-04-03T07:54:26.146Z,939.16
2019-04-03T07:55:24.212Z,939.15
2019-04-03T07:56:25.537Z,939.17
2019-04-03T07:57:23.903Z,939.21
2019-04-03T07:58:25.391Z,939.13
2019-04-03T07:59:23.596Z,939.14
2019-04-03T08:00:23.904Z,939.16
2019-04-03T08:01:23.576Z,939.14
2019-04-03T08:02:23.633Z,939.11
2019-04-03T08:03:23.584Z,939.14
2019-04-03T08:04:24.772Z,939.13
2019-04-03T08:05:23.523Z,939.16
2019-04-03T08:06:23.686Z,939.15
2019-04-03T08:07:23.572Z,939.14
2019-04-03T08:08:23.505Z,939.15
2019-04-03T08:09:23.586Z,939.18
2019-04-03T08:10:23.496Z,939.21
2019-04-03T08:11:23.483Z,939.24
2019-04-03T08:12:23.448Z,939.28
2019-04-03T08:13:23.430Z,939.28
2019-04-03T08:14:23.473Z,939.29
2019-04-03T08:15:23.420Z,939.27
2019-04-03T08:16:23.403Z,939.30
2019-04-03T08:17:23.411Z,939.32
2019-04-03T08:18:23.398Z,939.30
2019-04-03T08:19:23.609Z,939.28
2019-04-03T08:20:25.393Z,939.24
2019-04-03T08:21:23.358Z,939.28
2019-04-03T08:22:23.547Z,939.30
2019-04-03T08:23:23.342Z,939.27
2019-04-03T08:24:23.582Z,939.32
2019-04-03T08:25:23.304Z,939.29
2019-04-03T08:26:26.189Z,939.34
2019-04-03T08:27:24.358Z,939.37
2019-04-03T08:28:25.545Z,939.34
2019-04-03T08:29:23.258Z,939.33
2019-04-03T08:30:23.372Z,939.37
2019-04-03T08:31:23.467Z,939.40
2019-04-03T08:32:23.254Z,939.37
2019-04-03T08:33:26.311Z,939.43
2019-04-03T08:34:23.193Z,939.34
2019-04-03T08:35:24.221Z,939.35
2019-04-03T08:36:26.078Z,939.39
2019-04-03T08:37:30.175Z,939.43
2019-04-03T08:38:23.204Z,939.40
2019-04-03T08:39:23.145Z,939.43
2019-04-03T08:40:23.145Z,939.40
2019-04-03T08:41:24.131Z,939.42
2019-04-03T08:42:23.142Z,939.38
2019-04-03T08:43:23.269Z,939.34
2019-04-03T08:44:23.115Z,939.40
2019-04-03T08:45:23.089Z,939.36
2019-04-03T08:46:23.076Z,939.36
2019-04-03T08:47:23.185Z,939.35
2019-04-03T08:48:23.056Z,939.32
2019-04-03T08:49:25.782Z,939.35
2019-04-03T08:50:23.047Z,939.33
2019-04-03T08:51:23.043Z,939.34
2019-04-03T08:52:22.995Z,939.37
2019-04-03T08:53:22.982Z,939.36
2019-04-03T08:54:22.975Z,939.35
2019-04-03T08:55:22.998Z,939.28
2019-04-03T08:56:22.970Z,939.29
2019-04-03T08:57:22.958Z,939.29
2019-04-03T08:58:25.425Z,939.22
2019-04-03T08:59:22.911Z,939.20
2019-04-03T09:00:22.928Z,939.19
2019-04-03T09:01:23.265Z,939.16
2019-04-03T09:02:22.980Z,939.22
2019-04-03T09:03:22.876Z,939.19
2019-04-03T09:04:23.196Z,939.23
2019-04-03T09:05:22.844Z,939.22
2019-04-03T09:06:23.409Z,939.21
2019-04-03T09:07:24.513Z,939.17
2019-04-03T09:08:22.821Z,939.15
2019-04-03T09:09:22.962Z,939.16
2019-04-03T09:10:22.823Z,939.14
2019-04-03T09:11:22.910Z,939.16
2019-04-03T09:12:22.789Z,939.16
2019-04-03T09:13:24.048Z,939.18
2019-04-03T09:14:24.986Z,939.14
2019-04-03T09:15:22.751Z,939.16
2019-04-03T09:16:22.730Z,939.21
2019-04-03T09:17:22.745Z,939.21
2019-04-03T09:18:22.706Z,939.19
2019-04-03T09:19:22.717Z,939.09
2019-04-03T09:20:22.681Z,939.10
2019-04-03T09:21:22.830Z,939.08
2019-04-03T09:22:22.977Z,939.05
2019-04-03T09:23:24.706Z,939.05
2019-04-03T09:24:22.787Z,939.06
2019-04-03T09:25:22.648Z,939.04
2019-04-03T09:26:22.609Z,939.05
2019-04-03T09:27:23.033Z,939.01
2019-04-03T09:28:22.865Z,939.06
2019-04-03T09:29:22.578Z,938.96
2019-04-03T09:30:22.821Z,938.96
2019-04-03T09:31:22.574Z,938.97
2019-04-03T09:32:23.380Z,938.99
2019-04-03T09:33:40.687Z,938.99
2019-04-03T09:34:22.526Z,938.97
2019-04-03T09:35:22.559Z,939.02
2019-04-03T09:36:22.572Z,938.96
2019-04-03T09:37:22.500Z,938.97
2019-04-03T09:38:22.498Z,939.01
2019-04-03T09:39:23.102Z,939.00
2019-04-03T09:40:22.528Z,939.05
2019-04-03T09:41:22.611Z,939.02
2019-04-03T09:42:22.434Z,939.05
2019-04-03T09:43:23.146Z,938.98
2019-04-03T09:44:24.512Z,938.99
2019-04-03T09:45:22.568Z,938.96
2019-04-03T09:46:22.504Z,938.97
2019-04-03T09:47:22.399Z,938.97
2019-04-03T09:48:22.359Z,938.96
2019-04-03T09:49:22.367Z,938.98
2019-04-03T09:50:23.003Z,938.95
2019-04-03T09:51:23.011Z,938.92
2019-04-03T09:52:23.574Z,938.96
2019-04-03T09:53:23.929Z,938.93
2019-04-03T09:54:22.313Z,938.97
2019-04-03T09:55:22.309Z,938.97
2019-04-03T09:56:22.389Z,938.92
2019-04-03T09:57:22.264Z,939.01
2019-04-03T09:58:22.292Z,938.98
2019-04-03T09:59:22.247Z,938.96
2019-04-03T10:00:22.232Z,938.88
2019-04-03T10:01:22.253Z,938.88
2019-04-03T10:02:22.261Z,938.87
2019-04-03T10:03:23.533Z,938.87
2019-04-03T10:04:22.370Z,938.89
2019-04-03T10:05:22.176Z,938.85
2019-04-03T10:06:22.165Z,938.87
2019-04-03T10:07:22.146Z,938.84
2019-04-03T10:08:22.196Z,938.86
2019-04-03T10:09:22.146Z,938.82
2019-04-03T10:10:25.138Z,938.82
2019-04-03T10:11:22.175Z,938.84
2019-04-03T10:12:23.442Z,938.85
2019-04-03T10:13:24.844Z,938.81
2019-04-03T10:14:22.070Z,938.83
2019-04-03T10:15:22.080Z,938.86
2019-04-03T10:16:22.055Z,938.87
2019-04-03T10:17:22.044Z,938.86
2019-04-03T10:18:22.589Z,938.85
2019-04-03T10:19:22.386Z,938.78
2019-04-03T10:20:22.016Z,938.74
2019-04-03T10:21:22.270Z,938.76
2019-04-03T10:22:24.175Z,938.77
2019-04-03T10:23:22.235Z,938.74
2019-04-03T10:24:22.207Z,938.78
2019-04-03T10:25:21.953Z,938.70
2019-04-03T10:26:21.949Z,938.69
2019-04-03T10:27:21.930Z,938.67
2019-04-03T10:28:21.979Z,938.64
2019-04-03T10:29:21.963Z,938.67
2019-04-03T10:30:22.457Z,938.67
2019-04-03T10:31:24.223Z,938.68
2019-04-03T10:32:21.871Z,938.61
2019-04-03T10:33:22.162Z,938.61
2019-04-03T10:34:21.861Z,938.62
2019-04-03T10:35:21.900Z,938.63
2019-04-03T10:36:21.834Z,938.63
2019-04-03T10:37:21.815Z,938.57
2019-04-03T10:38:21.978Z,938.60
2019-04-03T10:39:21.797Z,938.56
2019-04-03T10:40:24.265Z,938.57
2019-04-03T10:41:21.810Z,938.57
2019-04-03T10:42:23.712Z,938.49
2019-04-03T10:43:22.197Z,938.51
2019-04-03T10:44:21.876Z,938.51
2019-04-03T10:45:21.755Z,938.51
2019-04-03T10:46:21.727Z,938.48
2019-04-03T10:47:25.304Z,938.49
2019-04-03T10:48:22.742Z,938.50
2019-04-03T10:49:21.722Z,938.47
2019-04-03T10:50:21.686Z,938.46
2019-04-03T10:51:21.954Z,938.46
2019-04-03T10:52:21.679Z,938.49
2019-04-03T10:53:21.901Z,938.42
2019-04-03T10:54:21.934Z,938.38
2019-04-03T10:55:21.674Z,938.37
2019-04-03T10:56:21.611Z,938.39
2019-04-03T10:57:21.795Z,938.38
2019-04-03T10:58:21.577Z,938.35
2019-04-03T10:59:21.579Z,938.35
2019-04-03T11:00:23.518Z,938.38
2019-04-03T11:01:21.600Z,938.31
2019-04-03T11:02:21.539Z,938.35
2019-04-03T11:03:21.751Z,938.36
2019-04-03T11:04:21.780Z,938.29
2019-04-03T11:05:21.535Z,938.28
2019-04-03T11:06:21.489Z,938.28
2019-04-03T11:07:21.485Z,938.28
2019-04-03T11:08:21.529Z,938.24
2019-04-03T11:09:21.459Z,938.26
2019-04-03T11:10:23.464Z,938.23
2019-04-03T11:11:21.476Z,938.25
2019-04-03T11:12:21.430Z,938.21
2019-04-03T11:13:21.479Z,938.23
2019-04-03T11:14:21.575Z,938.20
2019-04-03T11:15:21.413Z,938.19
2019-04-03T11:16:21.456Z,938.17
2019-04-03T11:17:21.362Z,938.15
2019-04-03T11:18:21.826Z,938.11
2019-04-03T11:19:21.366Z,938.07
2019-04-03T11:20:21.665Z,938.04
2019-04-03T11:21:21.358Z,938.08
2019-04-03T11:22:21.303Z,938.03
2019-04-03T11:23:36.154Z,938.00
2019-04-03T11:24:22.334Z,938.03
2019-04-03T11:25:22.043Z,937.99
2019-04-03T11:26:23.878Z,938.05
2019-04-03T11:27:22.973Z,938.05
2019-04-03T11:28:21.646Z,938.03
2019-04-03T11:29:42.900Z,937.99
2019-04-03T11:30:24.216Z,938.04
2019-04-03T11:31:27.162Z,938.03
2019-04-03T11:32:23.295Z,938.00
2019-04-03T11:33:21.256Z,937.96
2019-04-03T11:34:21.400Z,937.98
2019-04-03T11:35:22.325Z,937.99
2019-04-03T11:36:21.155Z,938.01
2019-04-03T11:37:21.265Z,938.00
2019-04-03T11:38:27.171Z,938.01
2019-04-03T11:39:22.136Z,937.98
2019-04-03T11:40:24.052Z,938.01
2019-04-03T11:41:22.974Z,938.01
2019-04-03T11:42:25.205Z,938.09
2019-04-03T11:43:21.094Z,938.06
2019-04-03T11:44:21.162Z,938.07
2019-04-03T11:45:21.318Z,938.06
2019-04-03T11:46:21.073Z,938.07
2019-04-03T11:47:21.030Z,938.02
2019-04-03T11:48:21.272Z,938.01
2019-04-03T11:49:21.395Z,937.98
2019-04-03T11:50:23.812Z,937.97
2019-04-03T11:51:21.076Z,937.96
2019-04-03T11:52:20.972Z,937.98
2019-04-03T11:53:21.022Z,937.95
2019-04-03T11:54:20.981Z,937.97
2019-04-03T11:55:21.096Z,937.94
2019-04-03T11:56:20.935Z,937.91
2019-04-03T11:57:20.920Z,937.92
2019-04-03T11:58:22.036Z,937.94
2019-04-03T11:59:22.765Z,937.89
2019-04-03T12:00:20.954Z,937.84
2019-04-03T12:01:20.879Z,937.84
2019-04-03T12:02:20.862Z,937.85
2019-04-03T12:03:20.876Z,937.79
2019-04-03T12:04:20.860Z,937.82
2019-04-03T12:05:21.551Z,937.83
2019-04-03T12:06:21.153Z,937.80
2019-04-03T12:07:20.803Z,937.78
2019-04-03T12:08:21.761Z,937.79
2019-04-03T12:09:20.783Z,937.75
2019-04-03T12:10:20.776Z,937.78
2019-04-03T12:11:20.817Z,937.73
2019-04-03T12:12:20.753Z,937.74
2019-04-03T12:13:21.980Z,937.77
2019-04-03T12:14:20.743Z,937.73
2019-04-03T12:15:21.773Z,937.73
2019-04-03T12:16:24.028Z,937.73
2019-04-03T12:17:20.692Z,937.72
2019-04-03T12:18:20.772Z,937.70
2019-04-03T12:19:20.679Z,937.69
2019-04-03T12:20:20.697Z,937.64
2019-04-03T12:21:20.650Z,937.64
2019-04-03T12:22:21.990Z,937.68
2019-04-03T12:23:20.658Z,937.67
2019-04-03T12:24:20.708Z,937.63
2019-04-03T12:25:20.631Z,937.66
2019-04-03T12:26:21.302Z,937.63
2019-04-03T12:27:20.887Z,937.65
2019-04-03T12:28:20.591Z,937.70
2019-04-03T12:29:21.396Z,937.66